sensor_id;sensor_type;location;lat;lon;timestamp;pressure;altitude;pressure_sealevel;temperature;humidity
70521;BME280;58442;52.716;23.560;2022-11-20T00:01:51;101541.37;;;-6.47;72.44
70521;BME280;58442;52.716;23.560;2022-11-20T00:03:54;101533.22;;;-6.45;72.42
70521;BME280;58442;52.716;23.560;2022-11-20T00:06:03;101526.70;;;-6.43;72.42
70521;BME280;58442;52.716;23.560;2022-11-20T00:08:04;101520.61;;;-6.43;72.36
70521;BME280;58442;52.716;23.560;2022-11-20T00:10:06;101528.77;;;-6.45;72.33
70521;BME280;58442;52.716;23.560;2022-11-20T00:12:07;101532.41;;;-6.46;72.33
70521;BME280;58442;52.716;23.560;2022-11-20T00:14:12;101542.18;;;-6.46;72.50
70521;BME280;58442;52.716;23.560;2022-11-20T00:16:19;101534.87;;;-6.44;72.58
70521;BME280;58442;52.716;23.560;2022-11-20T00:18:21;101529.94;;;-6.41;72.59
70521;BME280;58442;52.716;23.560;2022-11-20T00:20:22;101536.84;;;-6.40;72.56
70521;BME280;58442;52.716;23.560;2022-11-20T00:22:23;101526.27;;;-6.40;72.57
70521;BME280;58442;52.716;23.560;2022-11-20T00:24:32;101528.73;;;-6.38;72.59
70521;BME280;58442;52.716;23.560;2022-11-20T00:26:33;101529.52;;;-6.38;72.64
70521;BME280;58442;52.716;23.560;2022-11-20T00:28:34;101535.17;;;-6.34;72.64
70521;BME280;58442;52.716;23.560;2022-11-20T00:30:35;101533.12;;;-6.32;72.63
70521;BME280;58442;52.716;23.560;2022-11-20T00:32:36;101531.09;;;-6.30;72.56
70521;BME280;58442;52.716;23.560;2022-11-20T00:34:37;101532.71;;;-6.29;72.56
70521;BME280;58442;52.716;23.560;2022-11-20T00:36:38;101537.99;;;-6.29;72.58
70521;BME280;58442;52.716;23.560;2022-11-20T00:38:43;101535.35;;;-6.29;72.61
70521;BME280;58442;52.716;23.560;2022-11-20T00:40:44;101534.09;;;-6.26;72.71
70521;BME280;58442;52.716;23.560;2022-11-20T00:42:45;101524.13;;;-6.24;72.75
70521;BME280;58442;52.716;23.560;2022-11-20T00:44:46;101514.72;;;-6.20;72.74
70521;BME280;58442;52.716;23.560;2022-11-20T00:46:57;101524.05;;;-6.18;72.73
70521;BME280;58442;52.716;23.560;2022-11-20T00:48:58;101527.53;;;-6.17;72.73
70521;BME280;58442;52.716;23.560;2022-11-20T00:51:00;101530.77;;;-6.15;72.78
70521;BME280;58442;52.716;23.560;2022-11-20T00:53:01;101531.34;;;-6.13;72.76
70521;BME280;58442;52.716;23.560;2022-11-20T00:55:12;101532.77;;;-6.11;72.78
70521;BME280;58442;52.716;23.560;2022-11-20T00:57:13;101533.93;;;-6.07;72.79
70521;BME280;58442;52.716;23.560;2022-11-20T00:59:14;101532.90;;;-6.06;72.73
70521;BME280;58442;52.716;23.560;2022-11-20T01:01:21;101534.33;;;-6.03;72.71
70521;BME280;58442;52.716;23.560;2022-11-20T01:03:28;101525.13;;;-6.00;72.69
70521;BME280;58442;52.716;23.560;2022-11-20T01:05:34;101518.01;;;-6.00;72.72
70521;BME280;58442;52.716;23.560;2022-11-20T01:07:36;101508.81;;;-5.97;72.66
70521;BME280;58442;52.716;23.560;2022-11-20T01:09:37;101503.51;;;-5.97;72.66
70521;BME280;58442;52.716;23.560;2022-11-20T01:11:44;101500.88;;;-5.97;72.64
70521;BME280;58442;52.716;23.560;2022-11-20T01:13:46;101500.88;;;-5.97;72.65
70521;BME280;58442;52.716;23.560;2022-11-20T01:15:48;101488.66;;;-5.98;72.63
70521;BME280;58442;52.716;23.560;2022-11-20T01:17:49;101492.34;;;-5.99;72.70
70521;BME280;58442;52.716;23.560;2022-11-20T01:19:58;101487.87;;;-5.99;72.75
70521;BME280;58442;52.716;23.560;2022-11-20T01:21:59;101490.28;;;-5.97;72.78
70521;BME280;58442;52.716;23.560;2022-11-20T01:24:00;101490.89;;;-5.95;72.74
70521;BME280;58442;52.716;23.560;2022-11-20T01:26:08;101494.57;;;-5.96;72.66
70521;BME280;58442;52.716;23.560;2022-11-20T01:28:13;101494.99;;;-5.99;72.65
70521;BME280;58442;52.716;23.560;2022-11-20T01:30:14;101494.41;;;-6.01;72.65
70521;BME280;58442;52.716;23.560;2022-11-20T01:32:15;101497.05;;;-6.01;72.72
70521;BME280;58442;52.716;23.560;2022-11-20T01:34:18;101497.05;;;-6.01;72.70
70521;BME280;58442;52.716;23.560;2022-11-20T01:36:30;101500.74;;;-6.02;72.63
70521;BME280;58442;52.716;23.560;2022-11-20T01:38:31;101501.96;;;-6.05;72.62
70521;BME280;58442;52.716;23.560;2022-11-20T01:40:32;101497.92;;;-6.08;72.64
70521;BME280;58442;52.716;23.560;2022-11-20T01:42:33;101496.31;;;-6.09;72.71
70521;BME280;58442;52.716;23.560;2022-11-20T01:44:56;101499.77;;;-6.08;72.75
70521;BME280;58442;52.716;23.560;2022-11-20T01:47:07;101495.50;;;-6.09;72.72
70521;BME280;58442;52.716;23.560;2022-11-20T01:49:16;101499.77;;;-6.08;72.74
70521;BME280;58442;52.716;23.560;2022-11-20T01:51:26;101488.60;;;-6.10;72.70
70521;BME280;58442;52.716;23.560;2022-11-20T01:53:32;101487.79;;;-6.11;72.73
70521;BME280;58442;52.716;23.560;2022-11-20T01:55:39;101480.28;;;-6.14;72.67
70521;BME280;58442;52.716;23.560;2022-11-20T01:57:45;101484.17;;;-6.16;72.80
70521;BME280;58442;52.716;23.560;2022-11-20T01:59:56;101494.54;;;-6.15;72.86
70521;BME280;58442;52.716;23.560;2022-11-20T02:01:57;101488.44;;;-6.15;72.85
70521;BME280;58442;52.716;23.560;2022-11-20T02:03:59;101498.21;;;-6.16;72.83
70521;BME280;58442;52.716;23.560;2022-11-20T02:06:11;101493.14;;;-6.17;72.91
70521;BME280;58442;52.716;23.560;2022-11-20T02:08:24;101494.76;;;-6.16;72.92
70521;BME280;58442;52.716;23.560;2022-11-20T02:10:27;101495.34;;;-6.14;72.97
70521;BME280;58442;52.716;23.560;2022-11-20T02:12:28;101496.95;;;-6.13;72.97
70521;BME280;58442;52.716;23.560;2022-11-20T02:14:41;101492.25;;;-6.11;72.88
70521;BME280;58442;52.716;23.560;2022-11-20T02:16:47;101497.76;;;-6.13;72.82
70521;BME280;58442;52.716;23.560;2022-11-20T02:18:49;101499.38;;;-6.12;72.79
70521;BME280;58442;52.716;23.560;2022-11-20T02:20:59;101502.02;;;-6.12;72.74
70521;BME280;58442;52.716;23.560;2022-11-20T02:23:09;101493.51;;;-6.14;72.74
70521;BME280;58442;52.716;23.560;2022-11-20T02:25:12;101497.98;;;-6.14;72.77
70521;BME280;58442;52.716;23.560;2022-11-20T02:27:17;101496.15;;;-6.14;72.73
70521;BME280;58442;52.716;23.560;2022-11-20T02:29:35;101497.18;;;-6.15;72.66
70521;BME280;58442;52.716;23.560;2022-11-20T02:31:39;101498.21;;;-6.16;72.65
70521;BME280;58442;52.716;23.560;2022-11-20T02:33:41;101498.43;;;-6.17;72.62
70521;BME280;58442;52.716;23.560;2022-11-20T02:35:45;101495.98;;;-6.19;72.65
70521;BME280;58442;52.716;23.560;2022-11-20T02:37:52;101499.66;;;-6.20;72.71
70521;BME280;58442;52.716;23.560;2022-11-20T02:39:55;101504.95;;;-6.20;72.73
70521;BME280;58442;52.716;23.560;2022-11-20T02:41:56;101509.21;;;-6.19;72.74
70521;BME280;58442;52.716;23.560;2022-11-20T02:43:59;101504.37;;;-6.22;72.69
70521;BME280;58442;52.716;23.560;2022-11-20T02:46:00;101511.91;;;-6.25;72.77
70521;BME280;58442;52.716;23.560;2022-11-20T02:48:02;101512.94;;;-6.26;72.82
70521;BME280;58442;52.716;23.560;2022-11-20T02:50:04;101515.36;;;-6.25;72.90
70521;BME280;58442;52.716;23.560;2022-11-20T02:52:14;101515.16;;;-6.23;72.98
70521;BME280;58442;52.716;23.560;2022-11-20T02:54:16;101512.30;;;-6.22;73.04
70521;BME280;58442;52.716;23.560;2022-11-20T02:56:17;101517.15;;;-6.19;73.07
70521;BME280;58442;52.716;23.560;2022-11-20T02:58:18;101509.02;;;-6.17;73.08
70521;BME280;58442;52.716;23.560;2022-11-20T03:00:30;101508.57;;;-6.14;73.08
70521;BME280;58442;52.716;23.560;2022-11-20T03:02:33;101508.34;;;-6.13;73.10
70521;BME280;58442;52.716;23.560;2022-11-20T03:04:34;101507.12;;;-6.10;73.17
70521;BME280;58442;52.716;23.560;2022-11-20T03:06:35;101511.73;;;-6.06;73.16
70521;BME280;58442;52.716;23.560;2022-11-20T03:08:45;101513.16;;;-6.03;73.08
70521;BME280;58442;52.716;23.560;2022-11-20T03:10:46;101505.23;;;-6.03;73.07
70521;BME280;58442;52.716;23.560;2022-11-20T03:12:47;101508.45;;;-6.01;73.08
70521;BME280;58442;52.716;23.560;2022-11-20T03:14:48;101507.19;;;-5.98;72.96
70521;BME280;58442;52.716;23.560;2022-11-20T03:17:00;101505.16;;;-5.96;73.00
70521;BME280;58442;52.716;23.560;2022-11-20T03:19:01;101506.54;;;-5.94;72.95
70521;BME280;58442;52.716;23.560;2022-11-20T03:21:02;101500.22;;;-5.93;72.84
70521;BME280;58442;52.716;23.560;2022-11-20T03:23:04;101501.25;;;-5.94;72.84
70521;BME280;58442;52.716;23.560;2022-11-20T03:25:05;101500.67;;;-5.96;72.83
70521;BME280;58442;52.716;23.560;2022-11-20T03:27:06;101492.93;;;-5.97;72.85
70521;BME280;58442;52.716;23.560;2022-11-20T03:29:07;101502.70;;;-5.98;72.93
70521;BME280;58442;52.716;23.560;2022-11-20T03:31:13;101498.84;;;-5.95;72.96
70521;BME280;58442;52.716;23.560;2022-11-20T03:33:14;101506.77;;;-5.95;72.96
70521;BME280;58442;52.716;23.560;2022-11-20T03:35:16;101506.77;;;-5.95;72.91
70521;BME280;58442;52.716;23.560;2022-11-20T03:37:17;101506.77;;;-5.95;72.90
70521;BME280;58442;52.716;23.560;2022-11-20T03:39:26;101504.34;;;-5.97;72.93
70521;BME280;58442;52.716;23.560;2022-11-20T03:41:29;101509.64;;;-5.97;72.95
70521;BME280;58442;52.716;23.560;2022-11-20T03:43:31;101509.64;;;-5.97;72.93
70521;BME280;58442;52.716;23.560;2022-11-20T03:45:32;101514.10;;;-5.97;72.93
70521;BME280;58442;52.716;23.560;2022-11-20T03:47:41;101509.41;;;-5.95;72.95
70521;BME280;58442;52.716;23.560;2022-11-20T03:49:42;101511.26;;;-5.96;72.93
70521;BME280;58442;52.716;23.560;2022-11-20T03:51:43;101514.10;;;-5.97;72.93
70521;BME280;58442;52.716;23.560;2022-11-20T03:53:46;101507.41;;;-6.00;73.00
70521;BME280;58442;52.716;23.560;2022-11-20T03:55:56;101510.06;;;-6.00;73.09
70521;BME280;58442;52.716;23.560;2022-11-20T03:57:57;101507.19;;;-5.98;73.15
70521;BME280;58442;52.716;23.560;2022-11-20T03:59:58;101498.22;;;-5.97;73.12
70521;BME280;58442;52.716;23.560;2022-11-20T04:01:59;101501.48;;;-5.95;73.10
70521;BME280;58442;52.716;23.560;2022-11-20T04:04:00;101503.09;;;-5.94;73.16
70521;BME280;58442;52.716;23.560;2022-11-20T04:06:06;101489.86;;;-5.94;73.18
70521;BME280;58442;52.716;23.560;2022-11-20T04:08:08;101494.94;;;-5.93;73.19
70521;BME280;58442;52.716;23.560;2022-11-20T04:10:09;101491.25;;;-5.92;73.17
70521;BME280;58442;52.716;23.560;2022-11-20T04:12:10;101483.05;;;-5.90;73.23
70521;BME280;58442;52.716;23.560;2022-11-20T04:14:13;101486.31;;;-5.88;73.24
70521;BME280;58442;52.716;23.560;2022-11-20T04:16:15;101483.66;;;-5.88;73.20
70521;BME280;58442;52.716;23.560;2022-11-20T04:18:21;101477.56;;;-5.89;73.18
70521;BME280;58442;52.716;23.560;2022-11-20T04:20:22;101485.28;;;-5.87;73.09
70521;BME280;58442;52.716;23.560;2022-11-20T04:22:23;101482.63;;;-5.87;73.07
70521;BME280;58442;52.716;23.560;2022-11-20T04:24:24;101484.25;;;-5.86;73.04
70521;BME280;58442;52.716;23.560;2022-11-20T04:26:27;101481.82;;;-5.88;73.02
70521;BME280;58442;52.716;23.560;2022-11-20T04:28:28;101482.63;;;-5.87;72.98
70521;BME280;58442;52.716;23.560;2022-11-20T04:30:30;101484.70;;;-5.89;73.01
70521;BME280;58442;52.716;23.560;2022-11-20T04:32:32;101482.05;;;-5.89;72.97
70521;BME280;58442;52.716;23.560;2022-11-20T04:34:34;101488.34;;;-5.90;72.93
70521;BME280;58442;52.716;23.560;2022-11-20T04:36:35;101483.90;;;-5.90;72.96
70521;BME280;58442;52.716;23.560;2022-11-20T04:38:36;101484.70;;;-5.89;72.98
70521;BME280;58442;52.716;23.560;2022-11-20T04:40:37;101478.02;;;-5.92;72.92
70521;BME280;58442;52.716;23.560;2022-11-20T04:42:38;101474.79;;;-5.94;72.92
70521;BME280;58442;52.716;23.560;2022-11-20T04:44:39;101475.02;;;-5.95;72.92
70521;BME280;58442;52.716;23.560;2022-11-20T04:46:42;101468.30;;;-5.98;72.99
70521;BME280;58442;52.716;23.560;2022-11-20T04:48:44;101464.86;;;-5.98;73.01
70521;BME280;58442;52.716;23.560;2022-11-20T04:50:45;101466.46;;;-5.97;73.00
70521;BME280;58442;52.716;23.560;2022-11-20T04:52:46;101468.30;;;-5.98;72.96
70521;BME280;58442;52.716;23.560;2022-11-20T04:54:57;101459.80;;;-6.00;72.94
70521;BME280;58442;52.716;23.560;2022-11-20T04:56:58;101459.64;;;-6.05;73.01
70521;BME280;58442;52.716;23.560;2022-11-20T04:59:01;101450.88;;;-6.06;73.03
70521;BME280;58442;52.716;23.560;2022-11-20T05:01:07;101449.85;;;-6.04;73.05
70521;BME280;58442;52.716;23.560;2022-11-20T05:03:13;101444.57;;;-6.04;73.04
70521;BME280;58442;52.716;23.560;2022-11-20T05:05:14;101448.23;;;-6.06;73.01
70521;BME280;58442;52.716;23.560;2022-11-20T05:07:15;101440.30;;;-6.06;73.05
70521;BME280;58442;52.716;23.560;2022-11-20T05:09:16;101437.66;;;-6.06;72.94
70521;BME280;58442;52.716;23.560;2022-11-20T05:11:19;101426.49;;;-6.08;72.96
70521;BME280;58442;52.716;23.560;2022-11-20T05:13:21;101432.82;;;-6.09;73.04
70521;BME280;58442;52.716;23.560;2022-11-20T05:15:22;101428.55;;;-6.10;73.06
70521;BME280;58442;52.716;23.560;2022-11-20T05:17:25;101411.65;;;-6.09;73.05
70521;BME280;58442;52.716;23.560;2022-11-20T05:19:26;101413.49;;;-6.09;73.00
70521;BME280;58442;52.716;23.560;2022-11-20T05:21:30;101420.63;;;-6.10;73.01
70521;BME280;58442;52.716;23.560;2022-11-20T05:23:33;101414.72;;;-6.12;72.94
70521;BME280;58442;52.716;23.560;2022-11-20T05:25:40;101407.81;;;-6.13;72.97
70521;BME280;58442;52.716;23.560;2022-11-20T05:27:41;101407.81;;;-6.13;72.99
70521;BME280;58442;52.716;23.560;2022-11-20T05:29:43;101402.76;;;-6.14;73.01
70521;BME280;58442;52.716;23.560;2022-11-20T05:31:44;101407.81;;;-6.13;73.01
70521;BME280;58442;52.716;23.560;2022-11-20T05:33:45;101412.30;;;-6.13;72.95
70521;BME280;58442;52.716;23.560;2022-11-20T05:35:46;101410.46;;;-6.13;72.95
70521;BME280;58442;52.716;23.560;2022-11-20T05:37:49;101426.34;;;-6.13;72.87
70521;BME280;58442;52.716;23.560;2022-11-20T05:39:51;101415.98;;;-6.14;72.86
70521;BME280;58442;52.716;23.560;2022-11-20T05:41:52;101411.72;;;-6.15;72.89
70521;BME280;58442;52.716;23.560;2022-11-20T05:44:04;101411.72;;;-6.15;72.89
70521;BME280;58442;52.716;23.560;2022-11-20T05:46:07;101409.30;;;-6.17;72.85
70521;BME280;58442;52.716;23.560;2022-11-20T05:48:08;101407.66;;;-6.18;72.90
70521;BME280;58442;52.716;23.560;2022-11-20T05:50:09;101404.20;;;-6.18;72.84
70521;BME280;58442;52.716;23.560;2022-11-20T05:52:10;101402.37;;;-6.18;72.73
70521;BME280;58442;52.716;23.560;2022-11-20T05:54:11;101405.24;;;-6.19;72.73
70521;BME280;58442;52.716;23.560;2022-11-20T05:56:15;101405.48;;;-6.21;72.74
70521;BME280;58442;52.716;23.560;2022-11-20T05:58:17;101402.82;;;-6.21;72.79
70521;BME280;58442;52.716;23.560;2022-11-20T06:00:18;101407.30;;;-6.21;72.76
70521;BME280;58442;52.716;23.560;2022-11-20T06:02:21;101396.16;;;-6.23;72.69
70521;BME280;58442;52.716;23.560;2022-11-20T06:04:22;101396.34;;;-6.25;72.69
70521;BME280;58442;52.716;23.560;2022-11-20T06:06:24;101404.51;;;-6.26;72.82
70521;BME280;58442;52.716;23.560;2022-11-20T06:08:27;101399.22;;;-6.26;72.88
70521;BME280;58442;52.716;23.560;2022-11-20T06:10:37;101391.89;;;-6.24;72.94
70521;BME280;58442;52.716;23.560;2022-11-20T06:12:38;101389.24;;;-6.24;72.90
70521;BME280;58442;52.716;23.560;2022-11-20T06:14:39;101397.19;;;-6.24;72.92
70521;BME280;58442;52.716;23.560;2022-11-20T06:16:40;101394.31;;;-6.23;72.92
70521;BME280;58442;52.716;23.560;2022-11-20T06:18:41;101409.14;;;-6.22;72.91
70521;BME280;58442;52.716;23.560;2022-11-20T06:20:42;101394.31;;;-6.23;72.96
70521;BME280;58442;52.716;23.560;2022-11-20T06:22:43;101396.72;;;-6.21;72.97
70521;BME280;58442;52.716;23.560;2022-11-20T06:24:47;101399.15;;;-6.20;72.97
70521;BME280;58442;52.716;23.560;2022-11-20T06:26:48;101401.57;;;-6.18;72.93
70521;BME280;58442;52.716;23.560;2022-11-20T06:28:50;101402.37;;;-6.18;72.90
70521;BME280;58442;52.716;23.560;2022-11-20T06:30:51;101394.23;;;-6.16;72.91
70521;BME280;58442;52.716;23.560;2022-11-20T06:33:02;101392.40;;;-6.16;72.91
70521;BME280;58442;52.716;23.560;2022-11-20T06:35:03;101390.10;;;-6.12;72.89
70521;BME280;58442;52.716;23.560;2022-11-20T06:37:05;101391.95;;;-6.13;72.79
70521;BME280;58442;52.716;23.560;2022-11-20T06:39:06;101387.69;;;-6.14;72.75
70521;BME280;58442;52.716;23.560;2022-11-20T06:41:19;101389.30;;;-6.13;72.84
70521;BME280;58442;52.716;23.560;2022-11-20T06:43:22;101393.36;;;-6.10;72.90
70521;BME280;58442;52.716;23.560;2022-11-20T06:45:23;101393.94;;;-6.08;72.91
70521;BME280;58442;52.716;23.560;2022-11-20T06:47:24;101387.16;;;-6.04;72.95
70521;BME280;58442;52.716;23.560;2022-11-20T06:49:32;101389.61;;;-6.02;72.94
70521;BME280;58442;52.716;23.560;2022-11-20T06:51:34;101391.23;;;-6.01;72.89
70521;BME280;58442;52.716;23.560;2022-11-20T06:53:36;101388.35;;;-6.00;72.91
70521;BME280;58442;52.716;23.560;2022-11-20T06:55:42;101383.86;;;-5.99;72.99
70521;BME280;58442;52.716;23.560;2022-11-20T06:57:47;101384.24;;;-5.96;73.05
70521;BME280;58442;52.716;23.560;2022-11-20T06:59:48;101387.23;;;-5.92;73.06
70521;BME280;58442;52.716;23.560;2022-11-20T07:01:49;101391.04;;;-5.88;73.01
70521;BME280;58442;52.716;23.560;2022-11-20T07:03:50;101383.25;;;-5.83;72.91
70521;BME280;58442;52.716;23.560;2022-11-20T07:05:53;101374.48;;;-5.84;72.87
70521;BME280;58442;52.716;23.560;2022-11-20T07:07:56;101376.69;;;-5.81;72.93
70521;BME280;58442;52.716;23.560;2022-11-20T07:09:57;101369.91;;;-5.77;72.92
70521;BME280;58442;52.716;23.560;2022-11-20T07:11:59;101372.35;;;-5.75;72.94
70521;BME280;58442;52.716;23.560;2022-11-20T07:14:01;101364.76;;;-5.71;72.98
70521;BME280;58442;52.716;23.560;2022-11-20T07:16:04;101358.23;;;-5.69;72.91
70521;BME280;58442;52.716;23.560;2022-11-20T07:18:05;101362.25;;;-5.66;72.97
70521;BME280;58442;52.716;23.560;2022-11-20T07:20:15;101364.23;;;-5.62;72.98
70521;BME280;58442;52.716;23.560;2022-11-20T07:22:16;101360.90;;;-5.57;72.97
70521;BME280;58442;52.716;23.560;2022-11-20T07:24:17;101355.98;;;-5.54;72.95
70521;BME280;58442;52.716;23.560;2022-11-20T07:26:18;101353.67;;;-5.50;73.01
70521;BME280;58442;52.716;23.560;2022-11-20T07:28:29;101350.36;;;-5.45;73.04
70521;BME280;58442;52.716;23.560;2022-11-20T07:30:30;101337.24;;;-5.40;73.08
70521;BME280;58442;52.716;23.560;2022-11-20T07:32:31;101342.31;;;-5.39;72.97
70521;BME280;58442;52.716;23.560;2022-11-20T07:34:32;101340.01;;;-5.35;72.97
70521;BME280;58442;52.716;23.560;2022-11-20T07:36:33;101336.93;;;-5.32;73.01
70521;BME280;58442;52.716;23.560;2022-11-20T07:38:34;101337.05;;;-5.27;73.01
70521;BME280;58442;52.716;23.560;2022-11-20T07:40:35;101333.95;;;-5.24;73.05
70521;BME280;58442;52.716;23.560;2022-11-20T07:42:41;101338.56;;;-5.19;73.06
70521;BME280;58442;52.716;23.560;2022-11-20T07:44:45;101338.09;;;-5.16;73.00
70521;BME280;58442;52.716;23.560;2022-11-20T07:46:46;101334.20;;;-5.14;73.09
70521;BME280;58442;52.716;23.560;2022-11-20T07:48:47;101337.98;;;-5.10;73.11
70521;BME280;58442;52.716;23.560;2022-11-20T07:50:56;101330.41;;;-5.06;73.12
70521;BME280;58442;52.716;23.560;2022-11-20T07:53:04;101330.74;;;-5.03;73.14
70521;BME280;58442;52.716;23.560;2022-11-20T07:55:07;101331.67;;;-4.97;73.08
70521;BME280;58442;52.716;23.560;2022-11-20T07:57:08;101336.30;;;-4.92;72.99
70521;BME280;58442;52.716;23.560;2022-11-20T07:59:10;101341.13;;;-4.89;72.92
70521;BME280;58442;52.716;23.560;2022-11-20T08:01:12;101343.55;;;-4.88;72.99
70521;BME280;58442;52.716;23.560;2022-11-20T08:03:13;101340.69;;;-4.86;72.96
70521;BME280;58442;52.716;23.560;2022-11-20T08:05:14;101347.73;;;-4.80;72.99
70521;BME280;58442;52.716;23.560;2022-11-20T08:07:15;101348.30;;;-4.78;73.02
70521;BME280;58442;52.716;23.560;2022-11-20T08:09:16;101355.33;;;-4.72;73.08
70521;BME280;58442;52.716;23.560;2022-11-20T08:11:17;101348.51;;;-4.68;73.06
70521;BME280;58442;52.716;23.560;2022-11-20T08:13:30;101358.20;;;-4.62;73.08
70521;BME280;58442;52.716;23.560;2022-11-20T08:15:48;101354.86;;;-4.57;73.09
70521;BME280;58442;52.716;23.560;2022-11-20T08:18:11;101353.70;;;-4.50;73.05
70521;BME280;58442;52.716;23.560;2022-11-20T08:20:12;101353.82;;;-4.45;73.11
70521;BME280;58442;52.716;23.560;2022-11-20T08:22:13;101343.29;;;-4.40;73.13
70521;BME280;58442;52.716;23.560;2022-11-20T08:24:15;101345.02;;;-4.33;73.15
70521;BME280;58442;52.716;23.560;2022-11-20T08:26:21;101339.38;;;-4.25;73.13
70521;BME280;58442;52.716;23.560;2022-11-20T08:28:23;101335.77;;;-4.19;73.12
70521;BME280;58442;52.716;23.560;2022-11-20T08:30:24;101328.96;;;-4.15;73.08
70521;BME280;58442;52.716;23.560;2022-11-20T08:32:25;101325.37;;;-4.09;73.04
70521;BME280;58442;52.716;23.560;2022-11-20T08:34:34;101328.13;;;-4.04;73.04
70521;BME280;58442;52.716;23.560;2022-11-20T08:36:36;101329.61;;;-3.96;73.07
70521;BME280;58442;52.716;23.560;2022-11-20T08:38:38;101323.36;;;-3.90;73.07
70521;BME280;58442;52.716;23.560;2022-11-20T08:40:39;101314.66;;;-3.86;73.08
70521;BME280;58442;52.716;23.560;2022-11-20T08:42:50;101315.32;;;-3.78;73.09
70521;BME280;58442;52.716;23.560;2022-11-20T08:44:51;101315.98;;;-3.71;73.10
70521;BME280;58442;52.716;23.560;2022-11-20T08:46:52;101305.00;;;-3.63;73.07
70521;BME280;58442;52.716;23.560;2022-11-20T08:48:53;101313.38;;;-3.54;73.01
70521;BME280;58442;52.716;23.560;2022-11-20T08:51:05;101305.01;;;-3.46;72.93
70521;BME280;58442;52.716;23.560;2022-11-20T08:53:06;101303.82;;;-3.39;72.88
70521;BME280;58442;52.716;23.560;2022-11-20T08:55:08;101307.92;;;-3.31;72.85
70521;BME280;58442;52.716;23.560;2022-11-20T08:57:09;101314.47;;;-3.22;72.85
70521;BME280;58442;52.716;23.560;2022-11-20T08:59:20;101306.09;;;-3.14;72.81
70521;BME280;58442;52.716;23.560;2022-11-20T09:01:22;101297.96;;;-3.07;72.75
70521;BME280;58442;52.716;23.560;2022-11-20T09:03:23;101305.52;;;-2.99;72.69
70521;BME280;58442;52.716;23.560;2022-11-20T09:05:28;101311.48;;;-2.92;72.64
70521;BME280;58442;52.716;23.560;2022-11-20T09:07:35;101313.16;;;-2.86;72.63
70521;BME280;58442;52.716;23.560;2022-11-20T09:09:36;101315.66;;;-2.79;72.60
70521;BME280;58442;52.716;23.560;2022-11-20T09:11:37;101314.44;;;-2.71;72.65
70521;BME280;58442;52.716;23.560;2022-11-20T09:13:38;101313.20;;;-2.64;72.62
70521;BME280;58442;52.716;23.560;2022-11-20T09:15:39;101305.60;;;-2.55;72.56
70521;BME280;58442;52.716;23.560;2022-11-20T09:17:40;101306.48;;;-2.50;72.45
70521;BME280;58442;52.716;23.560;2022-11-20T09:19:41;101310.02;;;-2.44;72.40
70521;BME280;58442;52.716;23.560;2022-11-20T09:21:44;101311.95;;;-2.39;72.40
70521;BME280;58442;52.716;23.560;2022-11-20T09:23:45;101313.85;;;-2.35;72.38
70521;BME280;58442;52.716;23.560;2022-11-20T09:25:47;101322.46;;;-2.28;72.35
70521;BME280;58442;52.716;23.560;2022-11-20T09:27:57;101311.88;;;-2.23;72.34
70521;BME280;58442;52.716;23.560;2022-11-20T09:29:59;101309.05;;;-2.16;72.35
70521;BME280;58442;52.716;23.560;2022-11-20T09:32:00;101305.13;;;-2.08;72.21
70521;BME280;58442;52.716;23.560;2022-11-20T09:34:02;101296.41;;;-2.04;72.22
70521;BME280;58442;52.716;23.560;2022-11-20T09:36:03;101300.96;;;-1.99;72.18
70521;BME280;58442;52.716;23.560;2022-11-20T09:38:14;101285.30;;;-1.96;72.16
70521;BME280;58442;52.716;23.560;2022-11-20T09:49:23;101271.05;;;-1.84;72.10
70521;BME280;58442;52.716;23.560;2022-11-20T09:51:35;101268.41;;;-1.79;72.09
70521;BME280;58442;52.716;23.560;2022-11-20T09:56:01;101250.37;;;-1.72;72.05
70521;BME280;58442;52.716;23.560;2022-11-20T09:58:07;101253.84;;;-1.72;72.06
70521;BME280;58442;52.716;23.560;2022-11-20T10:00:13;101253.59;;;-1.70;72.06
70521;BME280;58442;52.716;23.560;2022-11-20T10:04:25;101252.02;;;-1.66;72.07
70521;BME280;58442;52.716;23.560;2022-11-20T10:09:13;101248.61;;;-1.61;72.12
70521;BME280;58442;52.716;23.560;2022-11-20T10:20:58;101221.81;;;-1.45;72.06
70521;BME280;58442;52.716;23.560;2022-11-20T10:23:17;101222.92;;;-1.41;72.07
70521;BME280;58442;52.716;23.560;2022-11-20T10:30:13;101230.18;;;-1.31;72.00
70521;BME280;58442;52.716;23.560;2022-11-20T10:32:18;101230.76;;;-1.29;72.00
70521;BME280;58442;52.716;23.560;2022-11-20T10:36:43;101224.93;;;-1.21;72.00
70521;BME280;58442;52.716;23.560;2022-11-20T10:39:00;101221.50;;;-1.16;71.94
70521;BME280;58442;52.716;23.560;2022-11-20T10:41:00;101216.19;;;-1.11;71.90
70521;BME280;58442;52.716;23.560;2022-11-20T10:43:26;101213.82;;;-1.07;71.81
70521;BME280;58442;52.716;23.560;2022-11-20T10:48:07;101217.06;;;-1.00;71.81
70521;BME280;58442;52.716;23.560;2022-11-20T10:50:18;101217.90;;;-0.95;71.72
70521;BME280;58442;52.716;23.560;2022-11-20T10:54:43;101216.07;;;-0.89;71.66
70521;BME280;58442;52.716;23.560;2022-11-20T10:56:53;101212.07;;;-0.87;71.63
70521;BME280;58442;52.716;23.560;2022-11-20T10:59:08;101217.67;;;-0.83;71.63
70521;BME280;58442;52.716;23.560;2022-11-20T11:01:16;101202.77;;;-0.79;71.65
70521;BME280;58442;52.716;23.560;2022-11-20T11:03:28;101196.40;;;-0.73;71.58
70521;BME280;58442;52.716;23.560;2022-11-20T11:05:50;101208.97;;;-0.68;71.53
70521;BME280;58442;52.716;23.560;2022-11-20T11:08:03;101202.56;;;-0.67;71.51
70521;BME280;58442;52.716;23.560;2022-11-20T11:10:15;101200.70;;;-0.67;71.52
70521;BME280;58442;52.716;23.560;2022-11-20T11:12:17;101207.10;;;-0.63;71.54
70521;BME280;58442;52.716;23.560;2022-11-20T11:14:19;101205.26;;;-0.57;71.45
70521;BME280;58442;52.716;23.560;2022-11-20T11:16:26;101208.75;;;-0.51;71.40
70521;BME280;58442;52.716;23.560;2022-11-20T11:18:33;101203.98;;;-0.44;71.33